Time;durP1;ratioP1;P1;durP2;ratioP2;P2;SDS_P1;SDS_P2;PMS_P1;PMS_P2;Temp;Humidity;BMP_temperature;BMP_pressure;BME280_temperature;BME280_humidity;BME280_pressure;Samples;Min_cycle;Max_cycle;Signal;HPM_P1;HPM_P2
2024/01/26 00:01:38;;;;;;;12.80;9.20;;;8.00;99.90;;;;;;5107796;28;20180;-62
2024/01/26 00:04:04;;;;;;;14.07;9.43;;;8.00;99.90;;;;;;5115350;28;20550;-62
2024/01/26 00:06:30;;;;;;;13.03;8.57;;;8.00;99.90;;;;;;5113879;28;20200;-62
2024/01/26 00:08:56;;;;;;;9.63;8.43;;;8.10;99.90;;;;;;5102502;28;20247;-62
2024/01/26 00:11:23;;;;;;;10.70;7.93;;;8.10;99.90;;;;;;5095704;28;20238;-62
2024/01/26 00:13:49;;;;;;;11.00;8.23;;;8.10;99.90;;;;;;5106764;28;20180;-62
2024/01/26 00:16:14;;;;;;;11.20;8.47;;;8.20;99.90;;;;;;5100562;28;20184;-62
2024/01/26 00:18:40;;;;;;;9.77;8.43;;;8.20;99.90;;;;;;5111330;28;20340;-62
2024/01/26 00:21:07;;;;;;;9.37;8.23;;;8.20;99.90;;;;;;5100968;28;20181;-62
2024/01/26 00:23:34;;;;;;;13.90;8.60;;;8.20;99.90;;;;;;5113745;28;20180;-62
2024/01/26 00:26:00;;;;;;;11.37;8.30;;;8.20;99.90;;;;;;5093137;28;20216;-62
2024/01/26 00:28:26;;;;;;;11.10;8.80;;;8.20;99.90;;;;;;5099401;28;20644;-63
2024/01/26 00:30:52;;;;;;;10.43;7.83;;;8.20;99.90;;;;;;5095631;28;20181;-62
2024/01/26 00:33:17;;;;;;;10.70;8.43;;;8.20;99.90;;;;;;5098586;28;20544;-62
2024/01/26 00:35:43;;;;;;;9.83;8.17;;;8.20;99.90;;;;;;5108422;28;20179;-62
2024/01/26 00:38:09;;;;;;;10.70;8.10;;;8.10;99.90;;;;;;5112930;28;20201;-62
2024/01/26 00:40:35;;;;;;;9.43;8.03;;;8.20;99.90;;;;;;5111168;28;20181;-62
2024/01/26 00:43:01;;;;;;;9.33;7.93;;;8.20;99.90;;;;;;5102941;28;20169;-62
2024/01/26 00:45:27;;;;;;;12.40;9.37;;;8.20;99.90;;;;;;5096104;28;20176;-62
2024/01/26 00:47:52;;;;;;;9.90;8.60;;;8.20;99.90;;;;;;5110269;28;20676;-62
2024/01/26 00:50:18;;;;;;;9.70;7.73;;;8.20;99.90;;;;;;5112386;28;20176;-62
2024/01/26 00:52:44;;;;;;;10.63;8.10;;;8.20;99.90;;;;;;5100219;28;20173;-62
2024/01/26 00:55:10;;;;;;;9.87;8.33;;;8.20;99.90;;;;;;5103200;28;20176;-62
2024/01/26 00:57:35;;;;;;;10.47;7.80;;;8.20;99.90;;;;;;5100826;28;20193;-63
2024/01/26 01:00:07;;;;;;;10.40;8.17;;;8.20;99.90;;;;;;5094252;28;20201;-62
2024/01/26 01:02:33;;;;;;;9.10;7.50;;;8.20;99.90;;;;;;5100002;28;20165;-62
2024/01/26 01:05:00;;;;;;;8.77;7.57;;;8.20;99.90;;;;;;5109097;28;20625;-62
2024/01/26 01:07:26;;;;;;;9.50;7.87;;;8.20;99.90;;;;;;5096964;28;20201;-62
2024/01/26 01:09:51;;;;;;;8.67;7.77;;;8.20;99.90;;;;;;5096090;28;20194;-62
2024/01/26 01:12:17;;;;;;;11.33;7.43;;;8.20;99.90;;;;;;5102716;28;20173;-63
2024/01/26 01:14:44;;;;;;;7.87;7.07;;;8.20;99.90;;;;;;5111719;28;20177;-62
2024/01/26 01:17:11;;;;;;;8.87;7.70;;;8.20;99.90;;;;;;5094710;28;20178;-63
2024/01/26 01:19:37;;;;;;;7.77;6.60;;;8.20;99.90;;;;;;5093256;28;20193;-62
2024/01/26 01:22:03;;;;;;;8.77;6.83;;;8.20;99.90;;;;;;5107408;28;20191;-62
2024/01/26 01:24:29;;;;;;;9.00;6.83;;;8.20;99.90;;;;;;5109345;28;20191;-62
2024/01/26 01:26:54;;;;;;;7.33;6.57;;;8.20;99.90;;;;;;5113675;28;20189;-62
2024/01/26 01:29:20;;;;;;;8.73;6.87;;;8.20;99.90;;;;;;5110817;28;20205;-62
2024/01/26 01:31:46;;;;;;;8.20;7.00;;;8.20;99.90;;;;;;5105987;28;20180;-62
2024/01/26 01:34:12;;;;;;;8.87;7.10;;;8.20;99.90;;;;;;5100738;28;20654;-62
2024/01/26 01:36:37;;;;;;;9.70;7.37;;;8.20;99.90;;;;;;5108099;28;20541;-62
2024/01/26 01:39:03;;;;;;;10.20;7.83;;;8.20;99.90;;;;;;5114632;28;20196;-62
2024/01/26 01:41:29;;;;;;;9.97;7.27;;;8.20;99.90;;;;;;5117331;28;20656;-62
2024/01/26 01:43:56;;;;;;;7.40;6.70;;;8.20;99.90;;;;;;5111830;27;20271;-62
2024/01/26 01:46:22;;;;;;;8.40;6.90;;;8.20;99.90;;;;;;5104990;28;20209;-62
2024/01/26 01:48:52;;;;;;;9.53;7.13;;;8.20;99.90;;;;;;5104498;28;20287;-62
2024/01/26 01:51:18;;;;;;;9.87;7.27;;;8.30;99.90;;;;;;5102010;28;20242;-62
2024/01/26 01:53:44;;;;;;;10.77;7.43;;;8.30;99.90;;;;;;5101849;28;20722;-62
2024/01/26 01:56:11;;;;;;;9.37;7.10;;;8.30;99.90;;;;;;5105312;28;20185;-62
2024/01/26 01:58:41;;;;;;;9.03;7.70;;;8.30;99.90;;;;;;5110272;28;20590;-62
2024/01/26 02:01:08;;;;;;;9.47;7.47;;;8.30;99.90;;;;;;5101759;28;20197;-63
2024/01/26 02:03:34;;;;;;;10.73;8.03;;;8.30;99.90;;;;;;5103031;28;20176;-62
2024/01/26 02:06:00;;;;;;;9.37;7.07;;;8.30;99.90;;;;;;5112075;28;20176;-62
2024/01/26 02:08:26;;;;;;;9.60;7.67;;;8.30;99.90;;;;;;5103887;28;20249;-62
2024/01/26 02:10:52;;;;;;;9.50;7.90;;;8.40;99.90;;;;;;5105765;28;20188;-63
2024/01/26 02:13:18;;;;;;;11.60;8.03;;;8.40;99.90;;;;;;5105647;28;20639;-63
2024/01/26 02:15:43;;;;;;;9.13;7.77;;;8.30;99.90;;;;;;5107243;27;20226;-62
2024/01/26 02:18:09;;;;;;;10.03;8.40;;;8.40;99.90;;;;;;5098686;28;20624;-62
2024/01/26 02:20:35;;;;;;;11.80;8.27;;;8.40;99.90;;;;;;5108373;28;20181;-62
2024/01/26 02:23:01;;;;;;;9.33;7.60;;;8.40;99.90;;;;;;5101865;28;20180;-62
2024/01/26 02:25:27;;;;;;;9.93;7.80;;;8.40;99.90;;;;;;5105306;28;20180;-62
2024/01/26 02:27:53;;;;;;;11.13;8.37;;;8.40;99.90;;;;;;5105873;28;20726;-62
2024/01/26 02:30:19;;;;;;;12.13;8.63;;;8.40;99.90;;;;;;5100915;28;20192;-62
2024/01/26 02:32:45;;;;;;;11.57;8.50;;;8.40;99.90;;;;;;5116194;28;20353;-62
2024/01/26 02:35:11;;;;;;;12.13;9.10;;;8.40;99.90;;;;;;5107836;28;20176;-63
2024/01/26 02:37:37;;;;;;;14.30;9.33;;;8.40;99.90;;;;;;5097425;28;20168;-62
2024/01/26 02:40:03;;;;;;;12.53;9.43;;;8.40;99.90;;;;;;5107156;28;20196;-62
2024/01/26 02:42:29;;;;;;;15.77;10.03;;;8.40;99.90;;;;;;5103102;28;20177;-63
2024/01/26 02:44:55;;;;;;;18.10;11.23;;;8.50;99.90;;;;;;5102875;28;20227;-62
2024/01/26 02:47:21;;;;;;;19.63;11.37;;;8.50;99.90;;;;;;5106348;28;20205;-63
2024/01/26 02:49:46;;;;;;;17.17;11.60;;;8.50;99.90;;;;;;5097376;28;20562;-62
2024/01/26 02:52:12;;;;;;;21.90;12.90;;;8.60;99.90;;;;;;5105699;28;20199;-62
2024/01/26 02:54:38;;;;;;;22.57;14.07;;;8.60;99.90;;;;;;5105912;28;20172;-62
2024/01/26 02:57:04;;;;;;;22.23;14.33;;;8.60;99.90;;;;;;5105675;28;20223;-62
2024/01/26 02:59:30;;;;;;;27.30;15.80;;;8.60;99.90;;;;;;5108680;28;20278;-62
2024/01/26 03:01:55;;;;;;;30.40;16.83;;;8.60;99.90;;;;;;5106599;28;20255;-62
2024/01/26 03:04:21;;;;;;;33.23;17.47;;;8.60;99.90;;;;;;5100529;28;20181;-63
2024/01/26 03:06:47;;;;;;;33.50;17.97;;;8.60;99.90;;;;;;5105644;28;20203;-62
2024/01/26 03:09:14;;;;;;;34.17;18.37;;;8.70;99.90;;;;;;5100209;28;20556;-62
2024/01/26 03:11:42;;;;;;;42.63;19.90;;;8.70;99.90;;;;;;5102600;28;20558;-62
2024/01/26 03:14:09;;;;;;;35.97;19.80;;;8.70;99.90;;;;;;5100822;28;20260;-62
2024/01/26 03:16:38;;;;;;;40.07;19.93;;;8.70;99.90;;;;;;5102689;28;20164;-61
2024/01/26 03:19:04;;;;;;;42.27;20.93;;;8.70;99.90;;;;;;5103574;28;20201;-63
2024/01/26 03:21:29;;;;;;;42.83;21.10;;;8.70;99.90;;;;;;5102262;28;20173;-62
2024/01/26 03:23:55;;;;;;;45.70;22.73;;;8.70;99.90;;;;;;5100712;28;20170;-62
2024/01/26 03:26:21;;;;;;;45.30;22.37;;;8.80;99.90;;;;;;5115055;28;20224;-62
2024/01/26 03:28:47;;;;;;;48.00;22.93;;;8.80;99.90;;;;;;5107984;28;20197;-63
2024/01/26 03:31:13;;;;;;;49.17;24.23;;;8.80;99.90;;;;;;5093301;28;20181;-62
2024/01/26 03:33:40;;;;;;;43.33;21.83;;;8.80;99.90;;;;;;5094892;28;20172;-62
2024/01/26 03:36:07;;;;;;;48.33;22.43;;;8.80;99.90;;;;;;5094795;28;20173;-62
2024/01/26 03:38:33;;;;;;;48.93;24.30;;;8.80;99.90;;;;;;5104733;28;20200;-61
2024/01/26 03:41:00;;;;;;;50.10;24.93;;;8.80;99.90;;;;;;5115038;28;20168;-62
2024/01/26 03:43:25;;;;;;;47.23;24.13;;;8.80;99.90;;;;;;5114949;28;20168;-62
2024/01/26 03:45:51;;;;;;;54.37;23.23;;;8.80;99.90;;;;;;5114928;28;20221;-62
2024/01/26 03:48:17;;;;;;;50.83;23.40;;;8.80;99.90;;;;;;5114989;28;20599;-62
2024/01/26 03:50:43;;;;;;;46.43;22.03;;;8.90;99.90;;;;;;5114678;28;20169;-62
2024/01/26 03:53:08;;;;;;;43.40;22.37;;;8.80;99.90;;;;;;5114556;28;20179;-62
2024/01/26 03:55:37;;;;;;;47.67;24.47;;;8.90;99.90;;;;;;5113775;28;20253;-62
2024/01/26 03:58:03;;;;;;;46.33;22.60;;;8.80;99.90;;;;;;5114387;28;20598;-63
2024/01/26 04:00:29;;;;;;;43.60;22.07;;;8.90;99.90;;;;;;5115065;28;20165;-62
2024/01/26 04:02:55;;;;;;;42.43;21.07;;;8.90;99.90;;;;;;5114459;28;20172;-62
2024/01/26 04:05:21;;;;;;;43.10;20.93;;;8.80;99.90;;;;;;5114431;28;20251;-61
2024/01/26 04:07:47;;;;;;;37.17;19.10;;;8.90;99.90;;;;;;5113034;28;20200;-62
2024/01/26 04:10:13;;;;;;;41.30;21.70;;;8.90;99.90;;;;;;5114289;28;20192;-62
2024/01/26 04:12:39;;;;;;;32.67;20.00;;;8.80;99.90;;;;;;5114753;28;20240;-62
2024/01/26 04:15:05;;;;;;;37.60;19.80;;;8.90;99.90;;;;;;5113018;28;20172;-62
2024/01/26 04:17:31;;;;;;;37.78;19.30;;;8.80;99.90;;;;;;5114487;28;20598;-62
2024/01/26 04:19:57;;;;;;;36.67;19.23;;;8.80;99.90;;;;;;5114337;28;20188;-62
2024/01/26 04:22:23;;;;;;;37.87;20.20;;;8.90;99.90;;;;;;5112988;28;20236;-62
2024/01/26 04:24:48;;;;;;;35.78;18.55;;;8.90;99.90;;;;;;5114572;28;20157;-62
2024/01/26 04:27:14;;;;;;;33.90;20.07;;;8.90;99.90;;;;;;5113973;28;20196;-62
2024/01/26 04:29:40;;;;;;;35.50;19.60;;;8.90;99.90;;;;;;5114290;27;20196;-62
2024/01/26 04:32:06;;;;;;;40.10;21.10;;;8.90;99.90;;;;;;5114290;28;20175;-62
2024/01/26 04:34:31;;;;;;;40.23;20.27;;;8.90;99.90;;;;;;5114418;28;20572;-63
2024/01/26 04:36:57;;;;;;;38.33;20.03;;;8.90;99.90;;;;;;5114131;28;20169;-63
2024/01/26 04:39:23;;;;;;;35.53;19.37;;;8.90;99.90;;;;;;5114020;28;20195;-63
2024/01/26 04:41:49;;;;;;;33.50;18.50;;;8.90;99.90;;;;;;5113933;28;20551;-62
2024/01/26 04:44:14;;;;;;;34.63;18.95;;;8.90;99.90;;;;;;5113833;28;20179;-63
2024/01/26 04:46:40;;;;;;;34.22;18.92;;;8.90;99.90;;;;;;5114201;28;20210;-62
2024/01/26 04:49:06;;;;;;;30.93;18.53;;;8.90;99.90;;;;;;5113773;28;20673;-62
2024/01/26 04:51:32;;;;;;;31.42;17.83;;;8.90;99.90;;;;;;5114083;28;20169;-63
2024/01/26 04:53:58;;;;;;;30.07;15.93;;;8.90;99.90;;;;;;5113961;28;20645;-63
2024/01/26 04:56:24;;;;;;;24.83;15.47;;;8.90;99.90;;;;;;5113956;28;20179;-63
2024/01/26 04:58:50;;;;;;;24.10;14.03;;;8.80;99.90;;;;;;5113640;28;20232;-63
2024/01/26 05:01:15;;;;;;;18.87;12.87;;;8.90;99.90;;;;;;5113770;28;20196;-62
2024/01/26 05:03:41;;;;;;;20.20;13.20;;;8.80;99.90;;;;;;5114022;28;20180;-63
2024/01/26 05:06:07;;;;;;;18.77;11.88;;;8.80;99.90;;;;;;5115494;28;20221;-63
2024/01/26 05:08:33;;;;;;;23.17;13.00;;;8.80;99.90;;;;;;5118509;28;20220;-63
2024/01/26 05:10:58;;;;;;;17.13;12.23;;;8.80;99.90;;;;;;5117853;28;20175;-63
2024/01/26 05:13:24;;;;;;;23.15;12.68;;;8.80;99.90;;;;;;5118169;28;20214;-63
2024/01/26 05:15:50;;;;;;;18.27;11.13;;;8.80;99.90;;;;;;5118069;28;20629;-63
2024/01/26 05:18:16;;;;;;;21.83;13.27;;;8.80;99.90;;;;;;5117616;28;20181;-63
2024/01/26 05:20:42;;;;;;;20.70;13.17;;;8.80;99.90;;;;;;5117977;28;20713;-63
2024/01/26 05:23:08;;;;;;;24.90;13.73;;;8.90;99.90;;;;;;5117633;28;20192;-63
2024/01/26 05:25:34;;;;;;;21.87;13.73;;;8.90;99.90;;;;;;5117614;28;20556;-63
2024/01/26 05:28:00;;;;;;;21.80;13.65;;;8.90;99.90;;;;;;5117362;28;20279;-63
2024/01/26 05:30:26;;;;;;;25.58;15.50;;;8.90;99.90;;;;;;5118052;28;20161;-63
2024/01/26 05:32:52;;;;;;;24.25;14.93;;;8.90;99.90;;;;;;5117432;28;20542;-63
2024/01/26 05:35:18;;;;;;;22.50;14.65;;;9.00;99.90;;;;;;5117631;28;20176;-63
2024/01/26 05:37:43;;;;;;;23.98;16.15;;;9.10;99.90;;;;;;5117324;28;20221;-62
2024/01/26 05:40:10;;;;;;;25.70;16.37;;;9.10;99.90;;;;;;5117160;28;20567;-62
2024/01/26 05:42:35;;;;;;;25.37;15.77;;;9.10;99.90;;;;;;5117429;28;20180;-62
2024/01/26 05:45:02;;;;;;;21.10;15.10;;;9.10;99.90;;;;;;5117154;28;20180;-63
2024/01/26 05:47:28;;;;;;;23.23;13.95;;;9.10;99.90;;;;;;5117811;28;20208;-63
2024/01/26 05:49:54;;;;;;;21.45;14.20;;;9.20;99.90;;;;;;5117328;28;20211;-63
2024/01/26 05:52:20;;;;;;;19.48;13.95;;;9.20;99.90;;;;;;5117024;28;20222;-63
2024/01/26 05:54:45;;;;;;;17.00;12.50;;;9.30;99.90;;;;;;5117174;28;20161;-63
2024/01/26 05:57:11;;;;;;;18.70;13.07;;;9.30;99.90;;;;;;5116809;28;20188;-63
2024/01/26 05:59:37;;;;;;;15.57;11.43;;;9.30;99.90;;;;;;5116914;28;20223;-63
2024/01/26 06:02:04;;;;;;;16.17;12.32;;;9.40;99.90;;;;;;5117032;28;20173;-63
2024/01/26 06:04:31;;;;;;;14.73;10.70;;;9.50;99.90;;;;;;5116654;28;20555;-63
2024/01/26 06:06:58;;;;;;;17.02;11.32;;;9.50;99.90;;;;;;5115324;28;20240;-63
2024/01/26 06:09:25;;;;;;;16.08;11.80;;;9.40;99.90;;;;;;5116547;28;20195;-63
2024/01/26 06:11:50;;;;;;;15.15;11.15;;;9.50;99.90;;;;;;5117166;28;20165;-63
2024/01/26 06:14:16;;;;;;;14.83;11.33;;;9.60;99.90;;;;;;5116512;28;20253;-63
2024/01/26 06:16:42;;;;;;;15.07;11.13;;;9.60;99.90;;;;;;5116411;28;20661;-63
2024/01/26 06:19:08;;;;;;;16.52;11.90;;;9.60;99.90;;;;;;5115975;28;20196;-63
2024/01/26 06:21:34;;;;;;;13.02;11.20;;;9.60;99.90;;;;;;5116695;28;20255;-63
2024/01/26 06:23:59;;;;;;;15.07;10.20;;;9.70;99.90;;;;;;5115056;28;20644;-63
2024/01/26 06:26:26;;;;;;;12.00;10.05;;;9.70;99.90;;;;;;5116555;28;20200;-65
2024/01/26 06:28:52;;;;;;;10.70;9.60;;;9.70;99.90;;;;;;5116342;28;20267;-64
2024/01/26 06:31:18;;;;;;;13.07;9.70;;;9.80;99.90;;;;;;5116466;28;20286;-64
2024/01/26 06:33:44;;;;;;;9.30;8.32;;;9.70;99.90;;;;;;5116846;28;20622;-63
2024/01/26 06:36:12;;;;;;;9.07;7.80;;;9.70;99.90;;;;;;5116712;27;20253;-63
2024/01/26 06:38:40;;;;;;;10.65;7.43;;;9.70;99.90;;;;;;5116274;28;20200;-64
2024/01/26 06:41:09;;;;;;;9.27;7.78;;;9.70;99.90;;;;;;5116255;28;20632;-64
2024/01/26 06:43:35;;;;;;;7.50;6.57;;;9.70;99.90;;;;;;5116249;28;20247;-64
2024/01/26 06:46:01;;;;;;;7.07;6.15;;;9.80;99.90;;;;;;5116338;28;20196;-64
2024/01/26 06:48:27;;;;;;;7.60;6.05;;;9.80;99.90;;;;;;5116062;28;20630;-64
2024/01/26 06:50:53;;;;;;;6.50;5.82;;;9.80;99.90;;;;;;5115039;28;20184;-64
2024/01/26 06:53:19;;;;;;;6.25;5.65;;;9.80;99.90;;;;;;5116058;28;20557;-64
2024/01/26 06:55:45;;;;;;;6.40;5.80;;;9.70;99.90;;;;;;5116845;28;20248;-64
2024/01/26 06:58:11;;;;;;;7.28;5.85;;;9.70;99.90;;;;;;5115560;28;20192;-64
2024/01/26 07:00:37;;;;;;;5.85;5.35;;;9.70;99.90;;;;;;5114443;28;20242;-64
2024/01/26 07:03:03;;;;;;;5.70;5.20;;;9.70;99.90;;;;;;5115599;28;20176;-63
2024/01/26 07:05:29;;;;;;;6.13;5.03;;;9.80;99.90;;;;;;5115589;27;20184;-63
2024/01/26 07:07:56;;;;;;;5.47;4.97;;;9.80;99.90;;;;;;5115804;28;20562;-63
2024/01/26 07:10:23;;;;;;;5.95;5.40;;;9.80;99.90;;;;;;5114578;28;20179;-64
2024/01/26 07:12:49;;;;;;;5.22;4.50;;;9.90;99.90;;;;;;5116060;28;20168;-63
2024/01/26 07:15:14;;;;;;;5.00;4.50;;;9.80;99.90;;;;;;5116001;28;20652;-64
2024/01/26 07:17:40;;;;;;;5.28;4.78;;;9.90;99.90;;;;;;5115653;28;20169;-64
2024/01/26 07:20:07;;;;;;;5.47;4.82;;;9.90;99.90;;;;;;5115585;28;20604;-63
2024/01/26 07:22:32;;;;;;;4.65;4.32;;;9.90;99.90;;;;;;5113981;28;20575;-63
2024/01/26 07:24:59;;;;;;;5.25;4.00;;;9.90;99.90;;;;;;5115801;28;20163;-63
2024/01/26 07:27:24;;;;;;;4.70;4.30;;;9.90;99.90;;;;;;5115317;28;20224;-63
2024/01/26 07:29:50;;;;;;;5.20;4.80;;;9.90;99.90;;;;;;5114026;28;20685;-63
2024/01/26 07:32:16;;;;;;;4.65;4.35;;;9.80;99.90;;;;;;5114994;28;20168;-63
2024/01/26 07:34:42;;;;;;;4.90;4.50;;;9.80;99.90;;;;;;5115292;28;20164;-64
2024/01/26 07:37:08;;;;;;;4.97;4.53;;;9.80;99.90;;;;;;5114795;28;20550;-63
2024/01/26 07:39:34;;;;;;;5.18;4.68;;;9.80;99.90;;;;;;5115051;28;20197;-64
2024/01/26 07:41:59;;;;;;;4.60;4.20;;;9.80;99.90;;;;;;5115246;28;20213;-63
2024/01/26 07:44:25;;;;;;;4.78;4.32;;;9.80;99.90;;;;;;5114985;28;20633;-64
2024/01/26 07:46:51;;;;;;;4.88;4.55;;;9.90;99.90;;;;;;5115092;28;20208;-64
2024/01/26 07:49:17;;;;;;;5.03;4.57;;;9.90;99.90;;;;;;5114634;28;20188;-63
2024/01/26 07:51:43;;;;;;;4.68;4.28;;;9.90;99.90;;;;;;5114667;28;20646;-63
2024/01/26 07:54:08;;;;;;;5.30;4.80;;;9.90;99.90;;;;;;5114787;28;20626;-63
2024/01/26 07:56:34;;;;;;;7.30;4.50;;;9.90;99.90;;;;;;5114997;28;20184;-63
2024/01/26 07:59:00;;;;;;;5.20;4.70;;;9.90;99.90;;;;;;5112972;28;20766;-63
2024/01/26 08:01:26;;;;;;;5.13;4.43;;;9.90;99.90;;;;;;5114698;28;20309;-64
2024/01/26 08:03:52;;;;;;;6.03;4.40;;;9.90;99.90;;;;;;5114428;28;20179;-63
2024/01/26 08:06:18;;;;;;;5.10;4.68;;;9.90;99.90;;;;;;5114513;28;20580;-64
2024/01/26 08:08:43;;;;;;;4.90;4.50;;;9.90;99.90;;;;;;5114469;28;20627;-64
2024/01/26 08:11:09;;;;;;;4.97;4.47;;;9.90;99.90;;;;;;5115217;28;20168;-64
2024/01/26 08:13:35;;;;;;;6.03;4.30;;;9.90;99.90;;;;;;5114283;28;20164;-64
2024/01/26 08:16:01;;;;;;;4.90;4.50;;;9.90;99.90;;;;;;5114525;28;20200;-63
2024/01/26 08:18:27;;;;;;;5.50;4.67;;;9.90;99.90;;;;;;5114140;28;20192;-64
2024/01/26 08:20:52;;;;;;;4.87;4.40;;;9.80;99.90;;;;;;5114616;28;20541;-63
2024/01/26 08:23:18;;;;;;;4.43;4.13;;;9.80;99.90;;;;;;5114124;28;20200;-64
2024/01/26 08:25:44;;;;;;;4.57;4.15;;;9.70;99.90;;;;;;5114612;28;20176;-63
2024/01/26 08:28:10;;;;;;;5.50;4.50;;;9.60;99.90;;;;;;5113920;28;20223;-63
2024/01/26 08:30:36;;;;;;;7.38;4.75;;;9.60;99.90;;;;;;5114013;28;20198;-63
2024/01/26 08:33:02;;;;;;;5.25;4.32;;;9.50;99.90;;;;;;5113978;28;20172;-63
2024/01/26 08:35:28;;;;;;;5.68;4.38;;;9.50;99.90;;;;;;5114147;28;20207;-63
2024/01/26 08:37:53;;;;;;;4.73;4.33;;;9.40;99.90;;;;;;5114126;28;20173;-63
2024/01/26 08:40:20;;;;;;;5.87;3.90;;;9.40;99.90;;;;;;5113566;28;20196;-63
2024/01/26 08:42:47;;;;;;;4.80;4.30;;;9.40;99.90;;;;;;5113739;28;20187;-63
2024/01/26 08:45:13;;;;;;;4.37;4.07;;;9.40;99.90;;;;;;5112446;28;20192;-62
2024/01/26 08:47:38;;;;;;;4.13;3.83;;;9.40;99.90;;;;;;5113660;28;20192;-62
2024/01/26 08:50:05;;;;;;;4.10;3.80;;;9.40;99.90;;;;;;5114212;28;20188;-62
2024/01/26 08:52:31;;;;;;;4.13;3.83;;;9.40;99.90;;;;;;5113668;28;20172;-62
2024/01/26 08:54:58;;;;;;;3.80;3.60;;;9.40;99.90;;;;;;5113588;28;20172;-63
2024/01/26 08:57:23;;;;;;;3.90;3.60;;;9.40;99.90;;;;;;5113608;28;20206;-62
2024/01/26 08:59:49;;;;;;;3.85;3.55;;;9.40;99.90;;;;;;5113546;28;20673;-63
2024/01/26 09:02:15;;;;;;;3.80;3.60;;;9.40;99.90;;;;;;5114157;28;20173;-62
2024/01/26 09:04:41;;;;;;;3.67;3.47;;;9.40;99.90;;;;;;5114138;28;20172;-63
2024/01/26 09:07:07;;;;;;;3.70;3.40;;;9.40;99.90;;;;;;5113472;28;20227;-63
2024/01/26 09:09:33;;;;;;;4.23;3.93;;;9.40;99.90;;;;;;5113488;28;20231;-62
2024/01/26 09:11:59;;;;;;;4.68;3.58;;;9.40;99.90;;;;;;5113484;28;20168;-63
2024/01/26 09:14:25;;;;;;;4.17;3.80;;;9.40;99.90;;;;;;5113468;28;20661;-62
2024/01/26 09:16:51;;;;;;;4.87;4.10;;;9.50;99.90;;;;;;5113432;28;20180;-63
2024/01/26 09:19:18;;;;;;;4.27;3.97;;;9.50;99.90;;;;;;5113579;28;20199;-63
2024/01/26 09:21:44;;;;;;;4.37;4.07;;;9.50;99.90;;;;;;5113364;28;20176;-62
2024/01/26 09:24:10;;;;;;;4.23;3.93;;;9.50;99.90;;;;;;5112090;28;20180;-63
2024/01/26 09:26:39;;;;;;;4.53;4.17;;;9.50;99.90;;;;;;5113268;28;20204;-63
2024/01/26 09:29:05;;;;;;;4.43;4.13;;;9.50;99.90;;;;;;5113221;28;20196;-63
2024/01/26 09:31:31;;;;;;;5.97;5.37;;;9.60;99.90;;;;;;5113277;28;20694;-62
2024/01/26 09:33:56;;;;;;;8.33;6.60;;;9.60;99.90;;;;;;5113277;28;20198;-62
2024/01/26 09:36:22;;;;;;;8.47;7.33;;;9.80;99.90;;;;;;5113827;28;20637;-63
2024/01/26 09:38:50;;;;;;;8.43;7.50;;;9.80;99.90;;;;;;5113198;28;20200;-63
2024/01/26 09:41:16;;;;;;;13.30;8.10;;;9.80;99.90;;;;;;5113418;28;20690;-63
2024/01/26 09:43:42;;;;;;;10.23;9.20;;;9.90;99.90;;;;;;5113442;28;20226;-63
2024/01/26 09:46:08;;;;;;;13.85;11.18;;;9.90;99.90;;;;;;5113617;28;20180;-62
2024/01/26 09:48:34;;;;;;;12.47;10.47;;;10.00;99.90;;;;;;5113270;28;20666;-62
2024/01/26 09:51:01;;;;;;;11.82;10.30;;;10.00;99.90;;;;;;5113011;28;20177;-62
2024/01/26 09:53:29;;;;;;;14.02;10.00;;;10.00;99.90;;;;;;5115362;28;20176;-62
2024/01/26 09:55:55;;;;;;;12.02;10.75;;;10.10;99.90;;;;;;5116870;28;20548;-63
2024/01/26 09:58:21;;;;;;;13.60;10.82;;;10.10;99.90;;;;;;5116658;28;20216;-63
2024/01/26 10:00:48;;;;;;;11.85;10.52;;;10.10;99.90;;;;;;5116825;28;20169;-63
2024/01/26 10:03:14;;;;;;;12.20;10.68;;;10.10;99.90;;;;;;5116774;28;20192;-63
2024/01/26 10:05:40;;;;;;;12.95;10.80;;;10.10;99.90;;;;;;5116843;28;20642;-62
2024/01/26 10:08:10;;;;;;;12.65;10.68;;;10.20;99.90;;;;;;5116709;28;20200;-63
2024/01/26 10:10:36;;;;;;;12.25;10.38;;;10.20;99.90;;;;;;5115638;28;20702;-63
2024/01/26 10:13:06;;;;;;;10.73;9.13;;;10.20;99.90;;;;;;5116474;28;20196;-63
2024/01/26 10:15:32;;;;;;;11.75;9.60;;;10.20;99.90;;;;;;5116407;28;20176;-63
2024/01/26 10:17:57;;;;;;;9.85;8.85;;;10.20;99.90;;;;;;5115283;28;20557;-63
2024/01/26 10:20:24;;;;;;;10.20;8.88;;;10.20;99.90;;;;;;5116372;28;20615;-63
2024/01/26 10:22:50;;;;;;;8.82;7.68;;;10.30;99.90;;;;;;5116578;28;20179;-63
2024/01/26 10:25:16;;;;;;;7.72;6.93;;;10.30;99.90;;;;;;5116341;28;20173;-64
2024/01/26 10:27:41;;;;;;;8.47;7.67;;;10.30;99.90;;;;;;5116157;28;20199;-65
2024/01/26 10:30:10;;;;;;;8.82;6.78;;;10.30;99.90;;;;;;5116266;28;20196;-63
2024/01/26 10:32:36;;;;;;;9.23;7.03;;;10.40;99.90;;;;;;5116212;28;20247;-63
2024/01/26 10:35:03;;;;;;;7.90;6.63;;;10.40;99.90;;;;;;5116453;28;20605;-63
2024/01/26 10:37:31;;;;;;;10.68;6.55;;;10.40;99.90;;;;;;5116139;28;20176;-63
2024/01/26 10:39:58;;;;;;;7.25;6.40;;;10.40;99.90;;;;;;5116064;28;20196;-63
2024/01/26 10:42:25;;;;;;;7.07;6.20;;;10.40;99.90;;;;;;5116156;28;20173;-63
2024/01/26 10:44:52;;;;;;;6.82;5.93;;;10.50;99.90;;;;;;5117193;28;20532;-63
2024/01/26 10:47:18;;;;;;;7.68;6.07;;;10.50;99.90;;;;;;5115824;27;20192;-63
2024/01/26 10:49:51;;;;;;;7.35;6.47;;;10.50;99.90;;;;;;5115849;28;20189;-63
2024/01/26 10:52:18;;;;;;;9.55;6.72;;;10.50;99.90;;;;;;5115848;28;20631;-63
2024/01/26 10:54:46;;;;;;;8.48;6.57;;;10.50;99.90;;;;;;5115834;28;20192;-63
2024/01/26 10:57:12;;;;;;;8.02;6.53;;;10.50;99.90;;;;;;5115604;28;20189;-63
2024/01/26 10:59:41;;;;;;;7.80;5.88;;;10.50;99.90;;;;;;5115985;28;20246;-63
2024/01/26 11:02:22;;;;;;;5.93;5.32;;;10.50;99.90;;;;;;5115738;28;20179;-63
2024/01/26 11:04:49;;;;;;;5.93;5.32;;;10.50;99.90;;;;;;5114243;28;20243;-63
2024/01/26 11:07:18;;;;;;;5.63;5.07;;;10.50;99.90;;;;;;5115472;28;20660;-63
2024/01/26 11:09:46;;;;;;;5.90;5.07;;;10.50;99.90;;;;;;5115712;28;20275;-63
2024/01/26 11:12:22;;;;;;;8.77;5.10;;;10.50;99.90;;;;;;5114194;28;20175;-63
2024/01/26 11:15:09;;;;;;;4.57;4.18;;;10.60;99.90;;;;;;5114165;28;20176;-63
2024/01/26 11:17:52;;;;;;;5.70;4.25;;;10.60;99.90;;;;;;5113825;28;20176;-62
2024/01/26 11:20:25;;;;;;;5.20;4.80;;;10.50;99.90;;;;;;5115551;28;20188;-64
2024/01/26 11:23:09;;;;;;;5.90;5.32;;;10.50;99.90;;;;;;5114001;28;20172;-63
2024/01/26 11:25:37;;;;;;;6.70;6.10;;;10.40;99.90;;;;;;5115112;28;20222;-64
2024/01/26 11:28:04;;;;;;;7.72;5.97;;;10.30;99.90;;;;;;5114926;28;20308;-63
2024/01/26 11:30:30;;;;;;;6.53;5.60;;;10.20;99.90;;;;;;5115177;28;20168;-63
2024/01/26 11:32:57;;;;;;;7.10;5.47;;;10.00;99.90;;;;;;5114938;28;20187;-63
2024/01/26 11:35:22;;;;;;;7.30;4.53;;;9.90;99.90;;;;;;5113755;28;20168;-64
2024/01/26 11:37:52;;;;;;;6.03;4.22;;;9.70;99.90;;;;;;5113668;28;20176;-63
2024/01/26 11:40:21;;;;;;;5.68;4.80;;;9.60;99.90;;;;;;5115117;28;20197;-64
2024/01/26 11:42:50;;;;;;;8.33;4.43;;;9.60;99.90;;;;;;5115024;28;20168;-64
2024/01/26 11:45:44;;;;;;;4.68;4.28;;;9.50;99.90;;;;;;5114770;28;20691;-63
2024/01/26 11:48:11;;;;;;;5.88;4.13;;;9.60;99.90;;;;;;5114871;28;20219;-63
2024/01/26 11:50:39;;;;;;;6.10;4.38;;;9.40;99.90;;;;;;5114608;28;20247;-64
2024/01/26 11:53:06;;;;;;;7.30;4.77;;;9.40;99.90;;;;;;5114676;28;20160;-63
2024/01/26 11:55:32;;;;;;;4.20;3.80;;;9.40;99.90;;;;;;5114656;28;20180;-63
2024/01/26 11:57:58;;;;;;;8.63;4.20;;;9.20;99.90;;;;;;5114406;28;20257;-64
2024/01/26 12:00:24;;;;;;;7.57;4.07;;;9.00;99.90;;;;;;5113188;28;20677;-64
2024/01/26 12:02:49;;;;;;;5.20;3.77;;;8.80;99.90;;;;;;5113153;28;20188;-63
2024/01/26 12:05:16;;;;;;;6.43;3.80;;;8.40;99.90;;;;;;5114452;28;20260;-63
2024/01/26 12:07:42;;;;;;;5.80;3.77;;;8.20;99.90;;;;;;5112930;28;20677;-63
2024/01/26 12:10:12;;;;;;;5.33;3.90;;;8.10;99.90;;;;;;5114291;28;20187;-63
2024/01/26 12:12:40;;;;;;;4.53;3.80;;;7.90;99.90;;;;;;5114609;28;20236;-63
2024/01/26 12:15:09;;;;;;;7.10;3.70;;;7.90;99.90;;;;;;5114018;28;20160;-62
2024/01/26 12:17:36;;;;;;;11.27;3.70;;;7.90;99.90;;;;;;5114592;27;20584;-63
2024/01/26 12:20:06;;;;;;;7.73;4.10;;;7.80;99.90;;;;;;5114673;28;20220;-63
2024/01/26 12:22:32;;;;;;;5.40;3.80;;;7.80;99.90;;;;;;5114844;28;20236;-62
2024/01/26 12:25:02;;;;;;;5.13;3.93;;;7.90;99.90;;;;;;5114211;28;20184;-64
2024/01/26 12:27:28;;;;;;;7.53;4.20;;;7.90;99.90;;;;;;5114009;28;20192;-63
2024/01/26 12:29:54;;;;;;;5.73;3.87;;;7.90;99.90;;;;;;5113955;28;20193;-63
2024/01/26 12:32:20;;;;;;;7.87;4.13;;;8.00;99.90;;;;;;5112680;28;20177;-63
2024/01/26 12:34:46;;;;;;;7.43;4.10;;;8.00;99.90;;;;;;5114241;28;20217;-64
2024/01/26 12:37:12;;;;;;;10.40;4.40;;;8.00;99.90;;;;;;5114379;28;20175;-63
2024/01/26 12:39:38;;;;;;;7.33;4.20;;;8.20;99.90;;;;;;5113782;28;20558;-64
2024/01/26 12:42:04;;;;;;;8.43;4.40;;;8.40;99.90;;;;;;5113907;28;20164;-63
2024/01/26 12:44:36;;;;;;;12.97;4.30;;;8.60;99.90;;;;;;5113341;28;20187;-64